Main page
METAR-TAF:

METAR-TAF

Airports :

Imperatriz Airport

Imperatriz, Maranhão, Brazil

latitude: 05-32S, longitude: 047-30W, elevation: 123 m

Current weather observation

The report was made 5 hours and 15 minutes ago, at 19:00 UTC
Calm wind
Temperature 34°C
Humidity 53%
Pressure 1007 hPa
Visibility 10 km or more
Scattered clouds at a height of 2500 ft

METAR: SBIZ 171900Z 00000KT 9999 SCT025 34/23 Q1007

Time: 21:15 (00:15 UTC)

Forecast

The report was made 9 hours and 15 minutes ago, at 15:00 UTC
Forecast valid from 17 at 18 UTC to 18 at 06 UTC
Wind 5 kt from the Northeast
Visibility 10 km or more
Scattered clouds at a height of 2500 ft
Becoming
from 18 at 03 UTC to 18 at 05 UTC
Wind kt from the North
Few clouds at a height of 2000 ft

TAF: SBIZ 171500Z 1718/1806 05005KT 9999 SCT025 TX34/1718Z TN25/1806Z BECMG 1803/1805 00000KT FEW020 RMK PHD

Weather observations and forecasts of more than 4000 airports (METAR and TAF reports).

The available stations are represented by yellow and red dots on the map.

Hover mouse over dot to see the name of the station.

Then click to see weather observations and forecasts.

To change the map : click on the green buttons with a black cross to zoom in, on the green button with a dash to zoom out, or on the green arrows for adjacent maps.


METAR-TAF: